Anderson, IN (46012)

12:00 PM EDT on October 30, 2014 (GMT -0400)
KB9VE-2, 240N/200E | Change Station
CLOSE
Current Station
Personal Weather Station
Location: Anderson, IN
Elevation: 895 ft
Nearby Weather Stations

Elev 895 ft 40.14 °N, 85.63 °W | Updated 12 seconds ago

Mostly Cloudy
Mostly Cloudy
49.1 °F
Feels Like 49 °F
N
2.0
Wind Variable Wind from West
Gusts 3.0 mph

Today
High -- | Low -- °F
--% Chance of Precip.
Yesterday
High -- | Low -- °F
Precip. -- in
8:09 AM 6:42 PM
Waxing Crescent, 45% visible
Pressure 30.17 in
Visibility 10.0 miles
Clouds Mostly Cloudy 3400 ft
Windchill 49 °F
Dew Point 37 °F
Humidity 63%
Rainfall 0.00 in
Snow Depth Not available.
UV 2 out of 12
Pollen .20 out of 12
Air Quality Not available.
Flu Activity Not available.
METAR KAID 301550Z 00000KT 10SM BKN034 08/M01 A3017

More Conditions Fewer Conditions

Pressure 30.17 in
Visibility 10.0 miles
Clouds Mostly Cloudy 3400 ft
Windchill 49 °F
Dew Point 37 °F
Humidity 63%
Rainfall 0.00 in
Snow Depth Not available.
UV 2 out of 12
Pollen .20 out of 12
Air Quality Not available.
Flu Activity Not available.
METAR KAID 301550Z 00000KT 10SM BKN034 08/M01 A3017

More Conditions Fewer Conditions

10-Day Weather Forecast

Almanac

Astronomy

Oct. 30, 2014 Rise Set
Actual Time
Civil Twilight
Nautical Twilight
Astronomical Twilight
Moon
Length of Visible Light
Length of Day
Tomorrow will be .
, % of the Moon is Illuminated

Today's Extremes

State Highs State Lows

Community

WunderPhotos

Upload Photos

1,766,394 photos uploaded!

WunderBlogs® & News

Nearby

Air Quality

  Air Quality AQ Index Pollutant
Not available.

Snow Depth

Station Depth Elevation

Earthquake Activity

City Distance Mag. Time & Date
Minimum magnitude displayed is 2.5.

Coastal Water Temperatures

Place Temperature

Nearby Weather Stations